AirNav   SIMCOM
 
 1729 users online  

KOQW Maquoketa Municipal Airport
Maquoketa, Iowa, USA

GOING TO MAQUOKETA?


FAA INFORMATION EFFECTIVE 20 JULY 2017

Location

FAA Identifier: OQW
Lat/Long: 42-03-00.3000N / 090-44-19.7000W
42-03.005000N / 090-44.328333W
42.0500833 / -90.7388056
(estimated)
Elevation: 769.4 ft. / 234.5 m (surveyed)
Variation: 00E (2000)
From city: 3 miles W of MAQUOKETA, IA
Time zone: UTC -5 (UTC -6 during Standard Time)
Zip code: 52060

Airport Operations

Airport use: Open to the public
Activation date: 10/1958
Control tower: no
ARTCC: CHICAGO CENTER
FSS: FORT DODGE FLIGHT SERVICE STATION
NOTAMs facility: FOD (NOTAM-D service available)
Attendance: UNATNDD
SVC AVBL AT 1-800-553-5283.
Wind indicator: lighted
Segmented circle: no
Lights: ACTVT MIRL RY 15/33 - CTAF. PAPI RYS 15 & 33 OPER 24HRS.
Beacon: white-green (lighted land airport)
Operates sunset to sunrise.

Airport Communications

CTAF/UNICOM: 122.8
  • APCH/DEP SVC PRVDD BY CHICAGO ARTCC ON FREQS 133.95/281.4 (DUBUQUE RCAG).

Nearby radio navigation aids

VOR radial/distance  VOR name  Freq  Var
DBQr180/21.1DUBUQUE VORTAC115.8004E
CVAr327/23.5DAVENPORT VORTAC113.8004E

Airport Services

Fuel available: 100LL JET-A
SELF-SERVE FUEL AVBL 24 HR WITH CREDIT CARD.
Parking: hangars and tiedowns
Airframe service: NONE
Powerplant service: NONE
Bottled oxygen: NONE
Bulk oxygen: NONE

Runway Information

Runway 15/33

Dimensions: 3304 x 60 ft. / 1007 x 18 m
Surface: concrete, in good condition
Runway edge lights: medium intensity
RUNWAY 15  RUNWAY 33
Latitude: 42-03.250457N42-02.758565N
Longitude: 090-44.483975W090-44.172642W
Elevation: 769.1 ft.738.1 ft.
Traffic pattern: leftleft
Runway heading: 155335
Markings: nonprecision, in good conditionnonprecision, in good condition
Visual slope indicator: 2-light PAPI on left (4.00 degrees glide path)2-light PAPI on left (3.00 degrees glide path)
Runway end identifier lights: yesyes
Touchdown point: yes, no lightsyes, no lights
Obstructions: 69 ft. trees, 1628 ft. from runway, 150 ft. left of centerline, 20:1 slope to clear94 ft. tree, 2472 ft. from runway, 298 ft. left of centerline, 24:1 slope to clear

Airport Ownership and Management from official FAA records

Ownership: Publicly-owned
Owner: CITY OF MAQUOKETA
201 EAST PLEASANT STREET
MAQUOKETA, IA 52060
Phone 563-652-2484
Manager: BRIAN WAGNER
201 EAST PLEASANT STREET
MAQUOKETA, IA 52060-9671
Phone 563-652-6517

Airport Operational Statistics

Aircraft based on the field: 11
Single engine airplanes: 11
    
Aircraft operations: avg 62/week *
55% transient general aviation
45% local general aviation
* for 12-month period ending 20 August 2014

Additional Remarks

ULTRALIGHT ACTVTY ON & INVOF ARPT.
RY 33 IS CALM WIND RY.

Instrument Procedures

NOTE: All procedures below are presented as PDF files. If you need a reader for these files, you should download the free Adobe Reader.

NOT FOR NAVIGATION. Please procure official charts for flight.
FAA instrument procedures published for use between 20 July 2017 at 0901Z and 17 August 2017 at 0900Z.

 
IAPs - Instrument Approach Procedures
RNAV (GPS) RWY 15   download (164KB)
RNAV (GPS) RWY 33   download (211KB)
NOTE: Special Take-Off Minimums/Departure Procedures apply   download (158KB)

Other nearby airports with instrument procedures:

KDBQ - Dubuque Regional Airport (21 nm N)
KMXO - Monticello Regional Airport (21 nm NW)
KCWI - Clinton Municipal Airport (23 nm SE)
8C4 - Mathews Memorial Airport (25 nm SW)
KDVN - Davenport Municipal Airport (27 nm S)
 
Loc | Ops | Rwys | IFR | FBO | Links
Com | Nav | Svcs | Stats | Notes


 
Area around KOQW (Maquoketa Municipal Airport)
 
Road maps at: MapQuest Bing Google
 
Aerial photo
WARNING: Photo may not be current or correct
Aerial photo of KOQW (Maquoketa Municipal Airport)
Do you have a better or more recent aerial photo of Maquoketa Municipal Airport that you would like to share? If so, please send us your photo.

 
Sectional chart

 
Airport distance calculator
Flying to Maquoketa Municipal Airport? Find the distance to fly.

From to KOQW

Sunrise and sunset
Times for 25-Jul-2017
 Local
(UTC-5)
 Zulu
(UTC)
Morning civil twilight05:1810:18
Sunrise05:5010:50
Sunset20:2801:28
Evening civil twilight21:0102:01

Current date and time
Zulu (UTC)  25-Jul-2017 15:22:20
Local (UTC-5)  25-Jul-2017 10:22:20
 
METAR
KDBQ 
21nm N 
251453Z 14009KT 10SM CLR 21/17 A3017 RMK AO2 SLP215 T02060167 51005
KMXO 
22nm NW 
251455Z AUTO 15008KT 10SM CLR 22/17 A3015 RMK AO2
KDVN 
27nm S 
251452Z AUTO 15006KT 10SM CLR 22/17 A3017 RMK AO2 SLP212 T02220172 50004
KSFY 
28nm E 
251455Z AUTO 17006KT 10SM CLR 22/18 A3017 RMK AO2 T02190176
KMLI 
37nm S 
251452Z VRB06KT 10SM CLR 23/18 A3015 RMK AO2 SLP209 T02280178 50004
KPVB 
41nm N 
251455Z AUTO 18008KT 10SM SCT012 21/19 A3019 RMK AO1 T02060189
TAF
KDBQ 
21nm N 
251132Z 2512/2612 16010KT P6SM SCT150
NOTAMs
Click for the latest NOTAMs
NOTAMs are issued by the DoD/FAA and will open in a separate window not controlled by AirNav.

 

 
 

FBO, Fuel Providers, and Aircraft Ground Support

  
 Business Name 
 
 Contact 
 
 Services / Description 
 
Fuel Prices
 
Comments
  
City of Maquoketa (FBO) 563-652-6517
no information available

If you are affiliated with City of Maquoketa (FBO) and would like to show here your services, contact info, web link, logo, and more, click here
100LL Jet A
SS $4.27 $2.99 
 Updated 14-Mar-2017
 
   1 read write
SS=Self service
Update Fuel Prices
 

Would you like to see your business listed on this page?

 If your business provides an interesting product or service to pilots, flight crews, aircraft, or users of the Maquoketa Municipal Airport, you should consider listing it here.  To start the listing process, click on the button below
 
Add a business
 

Other Pages about Maquoketa Municipal Airport

www.maquoketaia.com/...
Page from the Iowa Airport Directory
 
Update a link
 
Copyright © AirNav, LLC. All rights reserved. Privacy Policy  Contact